Time;durP1;ratioP1;P1;durP2;ratioP2;P2;SDS_P1;SDS_P2;PMS_P1;PMS_P2;Temp;Humidity;BMP_temperature;BMP_pressure;BME280_temperature;BME280_humidity;BME280_pressure;Samples;Min_cycle;Max_cycle;Signal;HPM_P1;HPM_P2
2022/06/25 00:00:36;;;;;;;2.63;2.20;;;;;;;;;;5087886;28;20312;-15
2022/06/25 00:03:04;;;;;;;3.30;2.22;;;;;;;;;;5091100;28;20235;-15
2022/06/25 00:05:32;;;;;;;3.00;2.47;;;;;;;;;;5096027;28;20402;-15
2022/06/25 00:07:59;;;;;;;3.25;2.30;;;;;;;;;;5093426;27;20769;-15
2022/06/25 00:10:28;;;;;;;3.58;2.45;;;;;;;;;;5114825;28;20227;-15
2022/06/25 00:12:54;;;;;;;4.38;2.30;;;;;;;;;;5114269;28;20235;-15
2022/06/25 00:15:22;;;;;;;2.80;2.42;;;;;;;;;;5089879;28;20263;-15
2022/06/25 00:17:49;;;;;;;2.58;2.25;;;;;;;;;;5110065;28;20239;-15
2022/06/25 00:20:16;;;;;;;3.45;2.40;;;;;;;;;;5103740;28;20228;-15
2022/06/25 00:22:44;;;;;;;2.25;2.05;;;;;;;;;;5096410;28;20244;-15
2022/06/25 00:25:11;;;;;;;3.80;2.50;;;;;;;;;;5099834;28;20228;-15
2022/06/25 00:27:40;;;;;;;2.40;2.20;;;;;;;;;;5114712;28;20220;-15
2022/06/25 00:30:08;;;;;;;2.65;2.40;;;;;;;;;;5106727;28;20243;-15
2022/06/25 00:32:35;;;;;;;4.30;2.65;;;;;;;;;;5105599;28;20239;-15
2022/06/25 00:35:02;;;;;;;2.40;2.20;;;;;;;;;;5114654;28;20228;-14
2022/06/25 00:37:30;;;;;;;2.58;2.38;;;;;;;;;;5103309;28;20236;-15
2022/06/25 00:39:57;;;;;;;2.63;2.30;;;;;;;;;;5091895;28;20320;-15
2022/06/25 00:42:25;;;;;;;4.32;2.35;;;;;;;;;;5095717;28;20238;-15
2022/06/25 00:44:55;;;;;;;5.70;2.50;;;;;;;;;;5114655;28;20231;-14
2022/06/25 00:47:22;;;;;;;2.40;2.20;;;;;;;;;;5088067;28;20240;-15
2022/06/25 00:49:50;;;;;;;3.92;2.33;;;;;;;;;;5089904;28;20739;-14
2022/06/25 00:52:18;;;;;;;4.18;2.67;;;;;;;;;;5112503;28;20238;-15
2022/06/25 00:54:46;;;;;;;3.08;2.40;;;;;;;;;;5114550;28;20232;-15
2022/06/25 00:57:14;;;;;;;3.45;2.90;;;;;;;;;;5104555;28;20304;-15
2022/06/25 00:59:42;;;;;;;5.40;2.50;;;;;;;;;;5114407;28;20220;-15
2022/06/25 01:02:11;;;;;;;5.00;2.42;;;;;;;;;;5113396;28;20729;-15
2022/06/25 01:04:39;;;;;;;4.57;2.38;;;;;;;;;;5095400;28;20235;-15
2022/06/25 01:07:08;;;;;;;6.05;2.42;;;;;;;;;;5092779;28;20366;-15
2022/06/25 01:09:35;;;;;;;4.18;2.50;;;;;;;;;;5099104;28;20258;-15
2022/06/25 01:12:03;;;;;;;3.38;2.65;;;;;;;;;;5096538;28;20228;-15
2022/06/25 01:14:30;;;;;;;3.30;2.95;;;;;;;;;;5093589;28;20731;-15
2022/06/25 01:16:58;;;;;;;4.20;2.78;;;;;;;;;;5092207;28;20233;-15
2022/06/25 01:19:26;;;;;;;6.25;2.08;;;;;;;;;;5102768;27;20273;-15
2022/06/25 01:22:00;;;;;;;3.53;2.42;;;;;;;;;;5113533;27;20247;-15
2022/06/25 01:24:27;;;;;;;5.85;2.78;;;;;;;;;;5103567;28;20229;-15
2022/06/25 01:26:55;;;;;;;3.22;2.85;;;;;;;;;;5094508;28;20228;-15
2022/06/25 01:29:23;;;;;;;3.22;2.75;;;;;;;;;;5113889;28;20750;-15
2022/06/25 01:31:52;;;;;;;4.63;2.83;;;;;;;;;;5101112;28;21015;-14
2022/06/25 01:34:20;;;;;;;3.38;2.78;;;;;;;;;;5104761;28;20691;-15
2022/06/25 01:36:47;;;;;;;4.95;3.13;;;;;;;;;;5099322;28;20235;-14
2022/06/25 01:39:16;;;;;;;4.97;2.90;;;;;;;;;;5113519;28;20224;-15
2022/06/25 01:41:43;;;;;;;3.47;2.90;;;;;;;;;;5107395;28;20624;-14
2022/06/25 01:44:11;;;;;;;4.13;2.95;;;;;;;;;;5113965;28;21028;-15
2022/06/25 01:46:38;;;;;;;8.45;4.10;;;;;;;;;;5100741;28;20224;-15
2022/06/25 01:49:05;;;;;;;5.55;3.00;;;;;;;;;;5096199;28;20240;-15
2022/06/25 01:51:33;;;;;;;3.28;2.97;;;;;;;;;;5113703;28;20232;-15
2022/06/25 01:54:00;;;;;;;3.95;3.13;;;;;;;;;;5113427;28;20216;-15
2022/06/25 01:56:29;;;;;;;3.58;2.90;;;;;;;;;;5094721;28;20234;-15
2022/06/25 01:58:56;;;;;;;7.38;3.10;;;;;;;;;;5094140;28;20243;-15
2022/06/25 02:01:24;;;;;;;4.90;2.80;;;;;;;;;;5112173;28;20699;-15
2022/06/25 02:03:51;;;;;;;4.63;2.97;;;;;;;;;;5107647;28;20233;-15
2022/06/25 02:06:19;;;;;;;4.70;2.80;;;;;;;;;;5113071;28;20640;-15
2022/06/25 02:08:49;;;;;;;6.75;2.92;;;;;;;;;;5104373;28;20239;-15
2022/06/25 02:11:16;;;;;;;2.97;2.67;;;;;;;;;;5105708;28;20240;-15
2022/06/25 02:13:45;;;;;;;4.68;2.83;;;;;;;;;;5102191;28;20235;-15
2022/06/25 02:16:14;;;;;;;4.78;2.92;;;;;;;;;;5090207;28;20233;-15
2022/06/25 02:18:41;;;;;;;4.65;3.10;;;;;;;;;;5113016;28;20789;-15
2022/06/25 02:21:09;;;;;;;4.55;2.97;;;;;;;;;;5103971;22;20246;-15
2022/06/25 02:23:36;;;;;;;4.50;2.95;;;;;;;;;;5081357;28;20229;-15
2022/06/25 02:26:03;;;;;;;3.03;2.60;;;;;;;;;;5086171;28;20714;-15
2022/06/25 02:28:31;;;;;;;4.20;2.85;;;;;;;;;;5078161;28;20343;-15
2022/06/25 02:31:00;;;;;;;6.60;2.80;;;;;;;;;;5092459;28;20256;-15
2022/06/25 02:33:27;;;;;;;3.65;3.17;;;;;;;;;;5091888;28;20225;-17
2022/06/25 02:35:54;;;;;;;4.80;3.03;;;;;;;;;;5092943;28;20229;-15
2022/06/25 02:38:22;;;;;;;3.20;2.50;;;;;;;;;;5093222;28;20237;-17
2022/06/25 02:40:49;;;;;;;3.35;2.67;;;;;;;;;;5092737;28;20228;-15
2022/06/25 02:43:17;;;;;;;2.78;2.58;;;;;;;;;;5091668;28;20233;-15
2022/06/25 02:45:44;;;;;;;5.32;2.80;;;;;;;;;;5086720;28;20225;-15
2022/06/25 02:48:13;;;;;;;5.97;2.53;;;;;;;;;;5073811;28;20275;-15
2022/06/25 02:50:40;;;;;;;7.43;2.45;;;;;;;;;;5091663;28;20237;-15
2022/06/25 02:53:08;;;;;;;6.55;2.60;;;;;;;;;;5090240;28;20233;-16
2022/06/25 03:01:05;;;;;;;3.35;2.10;;;;;;;;;;5089982;28;20688;-17
2022/06/25 03:03:34;;;;;;;4.63;2.40;;;;;;;;;;5089284;28;20231;-17
2022/06/25 03:06:01;;;;;;;8.50;3.13;;;;;;;;;;5091106;28;20324;-17
2022/06/25 03:08:29;;;;;;;4.70;2.78;;;;;;;;;;5091123;28;20239;-17
2022/06/25 03:10:56;;;;;;;3.05;2.42;;;;;;;;;;5091987;28;20608;-17
2022/06/25 03:13:23;;;;;;;4.38;2.47;;;;;;;;;;5091713;28;20636;-17
2022/06/25 03:15:51;;;;;;;4.68;2.35;;;;;;;;;;5090573;28;20699;-17
2022/06/25 03:18:18;;;;;;;6.95;2.40;;;;;;;;;;5090996;28;20236;-17
2022/06/25 03:20:47;;;;;;;2.50;2.15;;;;;;;;;;5091064;28;20233;-17
2022/06/25 03:23:14;;;;;;;11.77;2.72;;;;;;;;;;5091798;28;20236;-17
2022/06/25 03:25:41;;;;;;;5.40;2.50;;;;;;;;;;5091431;28;20608;-17
2022/06/25 03:28:09;;;;;;;3.20;2.38;;;;;;;;;;5090920;28;20229;-15
2022/06/25 03:30:36;;;;;;;3.63;2.63;;;;;;;;;;5085048;28;20247;-17
2022/06/25 03:33:04;;;;;;;3.10;2.47;;;;;;;;;;5090888;28;20224;-16
2022/06/25 03:35:31;;;;;;;3.03;2.58;;;;;;;;;;5091405;28;20243;-17
2022/06/25 03:38:00;;;;;;;4.45;2.40;;;;;;;;;;5093769;28;20259;-17
2022/06/25 03:40:27;;;;;;;3.60;2.20;;;;;;;;;;5090980;28;20229;-17
2022/06/25 03:42:55;;;;;;;3.97;2.50;;;;;;;;;;5090542;28;20320;-17
2022/06/25 03:45:22;;;;;;;5.47;2.33;;;;;;;;;;5091041;28;20224;-16
2022/06/25 03:47:50;;;;;;;6.13;2.47;;;;;;;;;;5091095;28;20221;-16
2022/06/25 03:50:18;;;;;;;6.50;2.60;;;;;;;;;;5090878;28;20236;-17
2022/06/25 03:52:45;;;;;;;6.25;2.90;;;;;;;;;;5091245;28;21111;-16
2022/06/25 03:55:14;;;;;;;5.38;2.28;;;;;;;;;;5085794;28;20657;-17
2022/06/25 03:57:42;;;;;;;5.63;2.42;;;;;;;;;;5083462;28;20256;-16
2022/06/25 04:00:10;;;;;;;6.63;2.80;;;;;;;;;;5089944;28;20229;-16
2022/06/25 04:02:37;;;;;;;8.00;2.17;;;;;;;;;;5088950;28;20233;-17
2022/06/25 04:05:05;;;;;;;4.72;2.30;;;;;;;;;;5088266;28;20229;-17
2022/06/25 04:07:32;;;;;;;6.15;2.88;;;;;;;;;;5090575;28;20225;-16
2022/06/25 04:10:00;;;;;;;4.18;2.58;;;;;;;;;;5090697;28;20228;-16
2022/06/25 04:12:29;;;;;;;3.42;2.35;;;;;;;;;;5090475;28;20221;-16
2022/06/25 04:14:56;;;;;;;4.10;2.65;;;;;;;;;;5090637;28;20232;-16
2022/06/25 04:17:24;;;;;;;4.22;2.80;;;;;;;;;;5090679;28;20239;-16
2022/06/25 04:19:51;;;;;;;4.38;2.30;;;;;;;;;;5090681;28;20323;-16
2022/06/25 04:22:19;;;;;;;3.80;2.63;;;;;;;;;;5100009;28;20247;-16
2022/06/25 04:24:46;;;;;;;6.40;2.20;;;;;;;;;;5094675;28;20239;-16
2022/06/25 04:29:03;;;;;;;3.60;2.28;;;;;;;;;;5086425;28;20684;-16
2022/06/25 04:30:02;;;;;;;3.55;2.40;;;;;;;;;;5090549;28;20251;-16
2022/06/25 04:32:30;;;;;;;7.85;2.50;;;;;;;;;;5089397;28;20244;-16
2022/06/25 04:34:57;;;;;;;4.32;2.28;;;;;;;;;;5087639;28;20239;-16
2022/06/25 04:37:24;;;;;;;4.07;2.25;;;;;;;;;;5090626;28;20233;-16
2022/06/25 04:39:52;;;;;;;6.35;2.20;;;;;;;;;;5084536;28;20231;-16
2022/06/25 04:42:19;;;;;;;5.70;2.33;;;;;;;;;;5082396;28;20291;-16
2022/06/25 04:44:47;;;;;;;3.33;1.92;;;;;;;;;;5089921;28;20229;-16
2022/06/25 04:47:15;;;;;;;4.60;2.22;;;;;;;;;;5088428;28;20233;-16
2022/06/25 04:49:43;;;;;;;6.60;1.90;;;;;;;;;;5089291;28;20243;-16
2022/06/25 04:52:10;;;;;;;3.80;2.30;;;;;;;;;;5089823;28;20297;-16
2022/06/25 04:54:37;;;;;;;5.88;1.85;;;;;;;;;;5088426;28;20236;-16
2022/06/25 04:57:05;;;;;;;7.03;2.22;;;;;;;;;;5090126;28;20236;-16
2022/06/25 04:59:32;;;;;;;3.42;2.05;;;;;;;;;;5092069;28;20707;-16
2022/06/25 05:02:00;;;;;;;3.28;2.28;;;;;;;;;;5091322;28;20288;-16
2022/06/25 05:04:29;;;;;;;4.95;2.35;;;;;;;;;;5092459;28;20268;-16
2022/06/25 05:06:56;;;;;;;3.00;2.25;;;;;;;;;;5083099;28;20224;-16
2022/06/25 05:09:23;;;;;;;2.85;1.80;;;;;;;;;;5083390;28;20237;-16
2022/06/25 05:11:51;;;;;;;5.05;2.28;;;;;;;;;;5078261;28;20233;-16
2022/06/25 05:14:18;;;;;;;4.80;2.85;;;;;;;;;;5085464;28;20229;-16
2022/06/25 05:16:46;;;;;;;3.78;2.40;;;;;;;;;;5080677;28;20240;-16
2022/06/25 05:19:13;;;;;;;6.05;2.47;;;;;;;;;;5077853;28;20708;-16
2022/06/25 05:21:42;;;;;;;7.10;2.58;;;;;;;;;;5080180;28;20247;-16
2022/06/25 05:24:10;;;;;;;9.10;2.97;;;;;;;;;;5086038;28;20730;-16
2022/06/25 05:26:37;;;;;;;4.93;2.70;;;;;;;;;;5089458;28;20241;-16
2022/06/25 05:29:04;;;;;;;5.38;2.80;;;;;;;;;;5087972;28;20232;-16
2022/06/25 05:31:32;;;;;;;3.38;2.30;;;;;;;;;;5083991;28;20239;-16
2022/06/25 05:33:59;;;;;;;3.90;2.38;;;;;;;;;;5085210;28;20225;-16
2022/06/25 05:36:27;;;;;;;7.40;2.30;;;;;;;;;;5090279;28;20229;-16
2022/06/25 05:38:55;;;;;;;2.85;2.33;;;;;;;;;;5087603;28;20229;-16
2022/06/25 05:41:23;;;;;;;4.72;2.85;;;;;;;;;;5087432;28;20692;-16
2022/06/25 05:43:50;;;;;;;4.30;2.42;;;;;;;;;;5087107;28;20239;-16
2022/06/25 05:46:17;;;;;;;4.45;2.65;;;;;;;;;;5089700;28;20279;-16
2022/06/25 05:48:45;;;;;;;7.93;2.78;;;;;;;;;;5087902;28;20244;-16
2022/06/25 05:51:12;;;;;;;8.25;2.65;;;;;;;;;;5087871;28;20229;-16
2022/06/25 05:53:44;;;;;;;4.18;2.65;;;;;;;;;;5082323;28;20233;-16
2022/06/25 05:56:13;;;;;;;4.70;3.00;;;;;;;;;;5088806;28;20808;-16
2022/06/25 05:58:40;;;;;;;4.22;2.60;;;;;;;;;;5087245;28;20239;-16
2022/06/25 06:01:08;;;;;;;4.18;2.78;;;;;;;;;;5083488;28;20241;-16
2022/06/25 06:03:35;;;;;;;6.60;2.47;;;;;;;;;;5088953;28;20231;-16
2022/06/25 06:06:03;;;;;;;4.35;2.55;;;;;;;;;;5081921;28;20231;-16
2022/06/25 06:08:31;;;;;;;5.22;2.72;;;;;;;;;;5084973;28;20229;-16
2022/06/25 06:10:58;;;;;;;3.05;2.70;;;;;;;;;;5087213;28;20259;-16
2022/06/25 06:13:27;;;;;;;7.38;3.22;;;;;;;;;;5088315;28;20237;-16
2022/06/25 06:15:54;;;;;;;4.85;2.72;;;;;;;;;;5091505;28;20243;-16
2022/06/25 06:18:21;;;;;;;6.47;2.80;;;;;;;;;;5091696;28;20229;-16
2022/06/25 06:20:49;;;;;;;6.72;2.97;;;;;;;;;;5089139;28;20229;-16
2022/06/25 06:23:16;;;;;;;4.40;3.15;;;;;;;;;;5088517;28;20602;-16
2022/06/25 06:25:44;;;;;;;4.20;2.80;;;;;;;;;;5080480;28;20231;-16
2022/06/25 06:28:11;;;;;;;5.18;2.65;;;;;;;;;;5084210;28;20236;-16
2022/06/25 06:30:40;;;;;;;5.85;2.80;;;;;;;;;;5090602;28;20248;-16
2022/06/25 06:33:07;;;;;;;9.30;2.90;;;;;;;;;;5086321;28;20233;-16
2022/06/25 06:35:35;;;;;;;6.55;3.33;;;;;;;;;;5085448;28;20236;-16
2022/06/25 06:38:02;;;;;;;4.20;3.10;;;;;;;;;;5081044;28;20232;-16
2022/06/25 06:40:29;;;;;;;6.72;3.05;;;;;;;;;;5088938;28;20699;-16
2022/06/25 06:42:57;;;;;;;7.75;2.88;;;;;;;;;;5085834;28;20229;-16
2022/06/25 06:45:24;;;;;;;4.95;2.90;;;;;;;;;;5088546;28;20227;-16
2022/06/25 06:47:53;;;;;;;4.70;2.95;;;;;;;;;;5091568;28;20237;-16
2022/06/25 06:50:20;;;;;;;5.82;2.95;;;;;;;;;;5091394;28;20239;-16
2022/06/25 06:52:48;;;;;;;3.00;2.70;;;;;;;;;;5090839;28;20233;-16
2022/06/25 06:55:15;;;;;;;5.78;2.60;;;;;;;;;;5089155;28;20244;-16
2022/06/25 06:57:43;;;;;;;8.73;2.97;;;;;;;;;;5088648;28;20927;-16
2022/06/25 07:00:13;;;;;;;5.28;3.10;;;;;;;;;;5091121;28;20232;-16
2022/06/25 07:02:40;;;;;;;5.13;3.28;;;;;;;;;;5091545;28;20235;-16
2022/06/25 07:05:09;;;;;;;5.63;3.00;;;;;;;;;;5088674;28;20235;-16
2022/06/25 07:07:37;;;;;;;6.53;2.58;;;;;;;;;;5091206;28;20244;-16
2022/06/25 07:10:05;;;;;;;5.15;2.97;;;;;;;;;;5091219;28;20410;-16
2022/06/25 07:12:32;;;;;;;4.72;3.05;;;;;;;;;;5089118;28;20240;-16
2022/06/25 07:15:00;;;;;;;5.40;2.90;;;;;;;;;;5090199;28;20669;-16
2022/06/25 07:17:27;;;;;;;5.32;2.70;;;;;;;;;;5085913;28;20229;-16
2022/06/25 07:19:54;;;;;;;8.13;2.88;;;;;;;;;;5087956;28;20230;-16
2022/06/25 07:22:23;;;;;;;4.75;2.50;;;;;;;;;;5088504;28;20248;-16
2022/06/25 07:24:51;;;;;;;5.55;2.60;;;;;;;;;;5090382;28;20730;-16
2022/06/25 07:27:19;;;;;;;5.43;2.80;;;;;;;;;;5089762;28;20274;-16
2022/06/25 07:29:46;;;;;;;3.40;2.30;;;;;;;;;;5088027;28;20228;-16
2022/06/25 07:32:13;;;;;;;5.25;2.50;;;;;;;;;;5089829;28;20228;-16
2022/06/25 07:34:41;;;;;;;3.65;2.40;;;;;;;;;;5084341;28;21059;-16
2022/06/25 07:37:09;;;;;;;5.07;3.00;;;;;;;;;;5089808;28;20232;-16
2022/06/25 07:39:37;;;;;;;3.88;2.33;;;;;;;;;;5087455;28;20960;-16
2022/06/25 07:42:05;;;;;;;5.95;2.15;;;;;;;;;;5088053;28;20243;-16
2022/06/25 07:44:32;;;;;;;6.20;2.95;;;;;;;;;;5085933;28;20233;-16
2022/06/25 07:47:00;;;;;;;6.05;2.47;;;;;;;;;;5090753;28;20225;-16
2022/06/25 07:49:27;;;;;;;7.90;3.05;;;;;;;;;;5088359;28;20229;-16
2022/06/25 07:51:57;;;;;;;4.22;2.28;;;;;;;;;;5086065;28;20625;-16
2022/06/25 07:54:24;;;;;;;9.60;2.53;;;;;;;;;;5089499;28;20243;-16
2022/06/25 07:56:53;;;;;;;4.90;2.50;;;;;;;;;;5089831;28;20699;-16
2022/06/25 07:59:20;;;;;;;5.10;2.20;;;;;;;;;;5089954;28;20335;-16
2022/06/25 08:01:48;;;;;;;11.60;3.10;;;;;;;;;;5087550;28;21039;-16
2022/06/25 08:04:15;;;;;;;8.90;2.47;;;;;;;;;;5086779;28;20238;-16
2022/06/25 08:06:44;;;;;;;5.95;2.30;;;;;;;;;;5089898;28;20987;-16
2022/06/25 08:09:11;;;;;;;5.65;2.58;;;;;;;;;;5089587;28;20234;-16
2022/06/25 08:11:38;;;;;;;4.00;2.47;;;;;;;;;;5084426;28;20221;-16
2022/06/25 08:14:07;;;;;;;4.38;2.83;;;;;;;;;;5087733;28;20240;-16
2022/06/25 08:16:35;;;;;;;3.83;2.33;;;;;;;;;;5089462;28;20260;-16
2022/06/25 08:19:02;;;;;;;3.97;2.53;;;;;;;;;;5089842;28;20229;-16
2022/06/25 08:21:30;;;;;;;5.90;2.20;;;;;;;;;;5089567;28;20298;-16
2022/06/25 08:23:58;;;;;;;6.03;2.30;;;;;;;;;;5084704;28;20229;-16
2022/06/25 08:26:25;;;;;;;6.60;2.20;;;;;;;;;;5089344;28;20247;-16
2022/06/25 08:28:53;;;;;;;6.22;2.35;;;;;;;;;;5089436;28;20232;-16
2022/06/25 08:31:23;;;;;;;4.40;2.10;;;;;;;;;;5089801;28;20282;-16
2022/06/25 08:33:50;;;;;;;6.57;2.42;;;;;;;;;;5090043;28;20247;-16
2022/06/25 08:36:18;;;;;;;3.42;2.20;;;;;;;;;;5092902;28;20225;-16
2022/06/25 08:38:45;;;;;;;4.60;2.60;;;;;;;;;;5092371;28;20752;-16
2022/06/25 08:41:13;;;;;;;3.17;2.35;;;;;;;;;;5090898;28;20236;-16
2022/06/25 08:43:41;;;;;;;4.07;2.47;;;;;;;;;;5091529;28;20263;-16
2022/06/25 08:46:08;;;;;;;7.47;2.40;;;;;;;;;;5093368;28;20377;-16
2022/06/25 08:48:37;;;;;;;7.15;1.90;;;;;;;;;;5092991;28;20237;-16
2022/06/25 08:51:04;;;;;;;5.35;2.22;;;;;;;;;;5092477;28;20264;-16
2022/06/25 08:53:32;;;;;;;4.82;2.00;;;;;;;;;;5093269;28;20237;-16
2022/06/25 08:56:00;;;;;;;2.97;1.73;;;;;;;;;;5089809;28;20232;-16
2022/06/25 08:58:27;;;;;;;3.08;1.85;;;;;;;;;;5092841;28;20247;-16
2022/06/25 09:00:55;;;;;;;3.25;1.88;;;;;;;;;;5089532;28;20237;-16
2022/06/25 09:03:22;;;;;;;2.80;1.52;;;;;;;;;;5081136;28;20240;-16
2022/06/25 09:05:51;;;;;;;3.70;1.88;;;;;;;;;;5093159;28;20221;-16
2022/06/25 09:08:18;;;;;;;6.53;1.73;;;;;;;;;;5092490;28;20714;-16
2022/06/25 09:10:46;;;;;;;4.05;1.65;;;;;;;;;;5092575;28;20224;-16
2022/06/25 09:13:14;;;;;;;6.10;1.50;;;;;;;;;;5093052;28;20236;-16
2022/06/25 09:15:42;;;;;;;3.03;1.30;;;;;;;;;;5093201;28;20228;-16
2022/06/25 09:18:09;;;;;;;8.25;1.33;;;;;;;;;;5092407;28;21300;-16
2022/06/25 09:20:37;;;;;;;2.95;1.50;;;;;;;;;;5090752;28;20255;-16
2022/06/25 09:23:06;;;;;;;8.93;1.50;;;;;;;;;;5092320;28;20243;-16
2022/06/25 09:25:34;;;;;;;2.47;1.45;;;;;;;;;;5090413;28;20232;-16
2022/06/25 09:28:02;;;;;;;3.25;1.30;;;;;;;;;;5090793;28;20239;-16
2022/06/25 09:30:29;;;;;;;3.40;1.50;;;;;;;;;;5091414;28;20259;-16
2022/06/25 09:32:57;;;;;;;1.45;1.20;;;;;;;;;;5091136;28;20953;-16
2022/06/25 09:35:29;;;;;;;6.15;1.55;;;;;;;;;;5092939;28;20281;-16
2022/06/25 09:38:00;;;;;;;2.90;1.48;;;;;;;;;;5092549;28;20879;-16
2022/06/25 09:40:29;;;;;;;3.45;1.23;;;;;;;;;;5092727;28;20236;-16
2022/06/25 09:42:57;;;;;;;3.80;1.30;;;;;;;;;;5091453;28;20228;-16
2022/06/25 09:45:25;;;;;;;4.22;1.40;;;;;;;;;;5092870;28;20273;-16
2022/06/25 09:47:52;;;;;;;2.40;1.30;;;;;;;;;;5092566;28;20243;-16
2022/06/25 09:50:20;;;;;;;4.18;1.27;;;;;;;;;;5091833;28;20228;-16
2022/06/25 09:52:51;;;;;;;3.00;1.00;;;;;;;;;;5085439;28;20233;-16
2022/06/25 09:55:19;;;;;;;5.35;1.38;;;;;;;;;;5092263;28;20291;-16
2022/06/25 09:57:47;;;;;;;1.67;1.33;;;;;;;;;;5092416;28;20584;-16
2022/06/25 10:00:15;;;;;;;2.70;1.15;;;;;;;;;;5092243;28;20239;-16
2022/06/25 10:02:43;;;;;;;3.08;1.45;;;;;;;;;;5078701;28;20659;-16
2022/06/25 10:05:10;;;;;;;5.55;1.50;;;;;;;;;;5092361;28;20265;-16
2022/06/25 10:10:35;;;;;;;3.83;1.45;;;;;;;;;;5045214;28;20701;-16
2022/06/25 10:13:04;;;;;;;3.42;1.60;;;;;;;;;;5090715;28;20229;-16
2022/06/25 10:15:31;;;;;;;4.15;1.40;;;;;;;;;;5092090;28;20236;-16
2022/06/25 10:18:00;;;;;;;2.65;1.38;;;;;;;;;;5091262;28;20229;-16
2022/06/25 10:20:27;;;;;;;4.07;1.73;;;;;;;;;;5092437;28;21026;-16
2022/06/25 10:22:54;;;;;;;7.63;1.20;;;;;;;;;;5078532;28;20280;-16
2022/06/25 10:25:23;;;;;;;3.67;1.30;;;;;;;;;;5088539;28;20407;-16
2022/06/25 10:27:51;;;;;;;2.58;1.20;;;;;;;;;;5084067;28;20237;-16
2022/06/25 10:30:33;;;;;;;18.35;2.28;;;;;;;;;;5090043;28;20228;-16
2022/06/25 10:33:02;;;;;;;3.38;1.60;;;;;;;;;;5086108;28;20221;-14
2022/06/25 10:35:29;;;;;;;4.88;1.60;;;;;;;;;;5091020;28;20244;-14
2022/06/25 10:38:00;;;;;;;5.10;1.23;;;;;;;;;;5088492;28;20234;-14
2022/06/25 10:40:28;;;;;;;3.75;1.42;;;;;;;;;;5088937;28;20236;-14
2022/06/25 10:43:00;;;;;;;4.25;1.10;;;;;;;;;;5091128;28;20718;-14
2022/06/25 10:45:52;;;;;;;6.05;1.27;;;;;;;;;;5088746;28;20308;-14
2022/06/25 10:48:23;;;;;;;2.55;1.30;;;;;;;;;;5091409;28;20229;-14
2022/06/25 10:50:50;;;;;;;3.58;1.13;;;;;;;;;;5085488;28;20233;-14
2022/06/25 10:53:18;;;;;;;7.95;1.30;;;;;;;;;;5091060;27;20324;-14
2022/06/25 10:56:07;;;;;;;5.13;1.50;;;;;;;;;;5099222;28;20240;-14
2022/06/25 10:58:42;;;;;;;5.15;1.10;;;;;;;;;;5082120;28;20229;-14
2022/06/25 11:01:18;;;;;;;4.30;1.30;;;;;;;;;;5085596;28;20235;-14
2022/06/25 11:03:47;;;;;;;5.18;1.30;;;;;;;;;;5091352;28;20312;-14
2022/06/25 11:06:18;;;;;;;1.67;0.77;;;;;;;;;;5094327;28;20232;-15
2022/06/25 11:08:45;;;;;;;2.90;0.90;;;;;;;;;;5085964;28;20220;-14
2022/06/25 11:11:12;;;;;;;0.90;0.57;;;;;;;;;;5088341;28;20233;-15
2022/06/25 11:13:40;;;;;;;1.60;0.60;;;;;;;;;;5086911;28;20240;-14
2022/06/25 11:16:14;;;;;;;2.70;0.70;;;;;;;;;;5091692;28;20240;-14
2022/06/25 11:18:47;;;;;;;3.45;0.65;;;;;;;;;;5089764;28;20719;-14
2022/06/25 11:21:27;;;;;;;2.17;0.70;;;;;;;;;;5089668;28;20236;-14
2022/06/25 11:24:05;;;;;;;1.13;0.70;;;;;;;;;;5083352;28;21012;-14
2022/06/25 11:29:19;;;;;;;2.35;0.60;;;;;;;;;;5089538;28;20232;-14
2022/06/25 11:31:46;;;;;;;1.77;0.60;;;;;;;;;;5090574;28;20235;-14
2022/06/25 11:34:18;;;;;;;2.33;0.70;;;;;;;;;;5089562;28;20721;-14
2022/06/25 11:36:46;;;;;;;1.02;0.65;;;;;;;;;;5087816;28;20279;-14
2022/06/25 11:39:14;;;;;;;1.90;1.10;;;;;;;;;;5090380;28;20239;-14
2022/06/25 11:41:44;;;;;;;1.95;0.70;;;;;;;;;;5086851;28;20225;-14
2022/06/25 11:44:12;;;;;;;0.95;0.60;;;;;;;;;;5090296;28;20750;-14
2022/06/25 11:46:39;;;;;;;4.13;0.70;;;;;;;;;;5084387;28;20228;-14
2022/06/25 11:49:07;;;;;;;0.90;0.55;;;;;;;;;;5092234;28;20241;-14
2022/06/25 11:51:36;;;;;;;2.72;0.68;;;;;;;;;;5097907;28;20271;-14
2022/06/25 11:54:06;;;;;;;2.63;0.73;;;;;;;;;;5091280;28;20237;-14
2022/06/25 11:56:33;;;;;;;2.92;0.60;;;;;;;;;;5088723;28;20240;-14
2022/06/25 11:59:01;;;;;;;3.53;1.23;;;;;;;;;;5089415;28;20232;-15
2022/06/25 12:01:28;;;;;;;2.25;0.70;;;;;;;;;;5095483;28;20232;-15
2022/06/25 12:03:56;;;;;;;2.53;0.85;;;;;;;;;;5088705;28;20228;-14
2022/06/25 12:06:23;;;;;;;1.15;0.85;;;;;;;;;;5083381;28;20263;-14
2022/06/25 12:08:52;;;;;;;1.52;0.90;;;;;;;;;;5097989;28;20228;-14
2022/06/25 12:11:19;;;;;;;1.42;0.77;;;;;;;;;;5084141;28;20237;-14
2022/06/25 12:13:47;;;;;;;3.08;1.00;;;;;;;;;;5104085;28;20238;-14
2022/06/25 12:16:14;;;;;;;1.95;0.90;;;;;;;;;;5097148;28;20245;-14
2022/06/25 12:18:42;;;;;;;3.40;0.80;;;;;;;;;;5093324;28;20285;-14
2022/06/25 12:21:10;;;;;;;1.08;0.77;;;;;;;;;;5091481;28;20232;-14
2022/06/25 12:23:50;;;;;;;1.27;0.80;;;;;;;;;;5092927;28;20232;-14
2022/06/25 12:26:25;;;;;;;2.70;0.98;;;;;;;;;;5100222;28;20227;-15
2022/06/25 12:28:52;;;;;;;2.42;1.10;;;;;;;;;;5091758;28;20232;-15
2022/06/25 12:31:21;;;;;;;2.53;1.10;;;;;;;;;;5098076;28;20236;-15
2022/06/25 12:33:49;;;;;;;2.22;0.93;;;;;;;;;;5100901;28;21479;-15
2022/06/25 12:36:17;;;;;;;1.25;0.85;;;;;;;;;;5094561;28;20347;-15
2022/06/25 12:38:44;;;;;;;2.67;0.85;;;;;;;;;;5091619;28;20233;-15
2022/06/25 12:41:11;;;;;;;2.03;0.77;;;;;;;;;;5091445;28;20628;-15
2022/06/25 12:43:46;;;;;;;2.05;0.98;;;;;;;;;;5093927;28;20242;-15
2022/06/25 12:46:14;;;;;;;3.00;1.20;;;;;;;;;;5089812;28;20228;-15
2022/06/25 12:48:41;;;;;;;4.60;1.05;;;;;;;;;;5096388;27;20236;-15
2022/06/25 12:51:09;;;;;;;1.73;1.10;;;;;;;;;;5096937;28;21035;-15
2022/06/25 12:53:37;;;;;;;2.53;1.10;;;;;;;;;;5101266;28;20239;-16
2022/06/25 12:56:04;;;;;;;2.03;0.90;;;;;;;;;;5092756;28;20723;-15
2022/06/25 12:58:35;;;;;;;1.17;0.90;;;;;;;;;;5093997;28;20228;-15
2022/06/25 13:03:56;;;;;;;2.15;1.10;;;;;;;;;;5111400;27;20671;-13
2022/06/25 13:06:23;;;;;;;3.28;1.10;;;;;;;;;;5087848;28;20236;-12
2022/06/25 13:08:51;;;;;;;3.25;1.35;;;;;;;;;;5082329;28;20238;-14
2022/06/25 13:11:18;;;;;;;2.28;1.10;;;;;;;;;;5078288;28;20243;-13
2022/06/25 13:13:46;;;;;;;2.67;1.05;;;;;;;;;;5086134;28;20243;-13
2022/06/25 13:16:13;;;;;;;3.65;1.40;;;;;;;;;;5084997;28;20863;-14
2022/06/25 13:18:41;;;;;;;3.35;1.10;;;;;;;;;;5089713;28;20255;-14
2022/06/25 13:21:10;;;;;;;2.90;1.08;;;;;;;;;;5089016;28;20599;-13
2022/06/25 13:23:37;;;;;;;2.60;1.00;;;;;;;;;;5090943;28;20233;-13
2022/06/25 13:26:04;;;;;;;5.93;1.20;;;;;;;;;;5083141;28;21144;-15
2022/06/25 13:28:32;;;;;;;3.85;1.17;;;;;;;;;;5084621;28;20236;-14
2022/06/25 13:31:00;;;;;;;2.15;1.10;;;;;;;;;;5087433;28;20624;-14
2022/06/25 13:33:27;;;;;;;3.72;1.17;;;;;;;;;;5082517;28;20233;-13
2022/06/25 13:35:55;;;;;;;1.83;1.23;;;;;;;;;;5096395;28;20236;-14
2022/06/25 13:38:24;;;;;;;4.15;1.20;;;;;;;;;;5083937;28;20795;-14
2022/06/25 13:40:51;;;;;;;3.78;1.45;;;;;;;;;;5083016;28;20240;-13
2022/06/25 13:43:19;;;;;;;1.67;1.17;;;;;;;;;;5081414;28;20699;-14
2022/06/25 13:45:46;;;;;;;3.50;1.17;;;;;;;;;;5087404;28;20810;-14
2022/06/25 13:48:14;;;;;;;3.22;1.35;;;;;;;;;;5082109;28;20233;-14
2022/06/25 13:50:41;;;;;;;2.20;1.10;;;;;;;;;;5079188;28;20240;-14
2022/06/25 13:53:15;;;;;;;4.60;1.08;;;;;;;;;;5081291;28;20237;-14
2022/06/25 13:55:45;;;;;;;1.80;1.00;;;;;;;;;;5080361;28;20249;-14
2022/06/25 13:58:13;;;;;;;3.95;1.23;;;;;;;;;;5082124;28;20224;-13
2022/06/25 14:00:40;;;;;;;1.73;0.70;;;;;;;;;;5081094;28;20700;-14
2022/06/25 14:03:07;;;;;;;3.22;0.88;;;;;;;;;;5082237;28;20253;-12
2022/06/25 14:05:35;;;;;;;7.28;1.40;;;;;;;;;;5077916;28;20348;-12
2022/06/25 14:08:02;;;;;;;4.35;1.23;;;;;;;;;;5081070;28;20231;-12
2022/06/25 14:10:30;;;;;;;3.65;1.10;;;;;;;;;;5074376;28;20229;-12
2022/06/25 14:12:58;;;;;;;3.50;1.10;;;;;;;;;;5082363;28;20239;-13
2022/06/25 14:15:26;;;;;;;5.82;0.98;;;;;;;;;;5065538;28;20230;-12
2022/06/25 14:17:58;;;;;;;3.72;1.10;;;;;;;;;;5066335;28;20288;-11
2022/06/25 14:20:25;;;;;;;2.78;1.00;;;;;;;;;;5069107;28;20264;-12
2022/06/25 14:22:52;;;;;;;3.88;0.98;;;;;;;;;;5067602;28;20256;-12
2022/06/25 14:25:24;;;;;;;2.40;0.80;;;;;;;;;;5068462;28;20225;-12
2022/06/25 14:27:52;;;;;;;6.38;0.90;;;;;;;;;;5065940;28;21074;-12
2022/06/25 14:30:21;;;;;;;5.38;1.45;;;;;;;;;;5069841;28;20232;-12
2022/06/25 14:32:48;;;;;;;2.58;1.00;;;;;;;;;;5067430;28;20244;-12
2022/06/25 14:35:15;;;;;;;1.90;0.90;;;;;;;;;;5068289;28;20263;-12
2022/06/25 14:43:13;;;;;;;1.60;1.30;;;;;;;;;;5065892;28;20245;-11
2022/06/25 14:45:42;;;;;;;2.25;1.00;;;;;;;;;;5069361;28;21118;-11
2022/06/25 14:48:09;;;;;;;2.78;1.33;;;;;;;;;;5070117;28;20234;-11
2022/06/25 14:50:37;;;;;;;1.63;0.88;;;;;;;;;;5074012;28;20242;-12
2022/06/25 14:53:04;;;;;;;3.33;1.20;;;;;;;;;;5074313;28;20257;-12
2022/06/25 14:55:32;;;;;;;3.75;1.00;;;;;;;;;;5069765;28;20766;-13
2022/06/25 14:57:59;;;;;;;2.28;1.10;;;;;;;;;;5074240;28;20236;-12
2022/06/25 15:00:27;;;;;;;6.55;1.10;;;;;;;;;;5065189;28;20234;-11
2022/06/25 15:02:56;;;;;;;2.97;1.20;;;;;;;;;;5077241;28;20723;-13
2022/06/25 15:05:24;;;;;;;3.10;0.93;;;;;;;;;;5068167;28;20233;-12
2022/06/25 15:07:51;;;;;;;3.10;1.02;;;;;;;;;;5074292;28;20730;-12